sensor_id;sensor_type;location;lat;lon;timestamp;temperature;humidity
23703;DHT22;12030;50.376;8.762;2022-08-18T00:02:22;19.50;99.90
23703;DHT22;12030;50.376;8.762;2022-08-18T00:04:49;19.40;99.90
23703;DHT22;12030;50.376;8.762;2022-08-18T00:07:18;19.30;99.90
23703;DHT22;12030;50.376;8.762;2022-08-18T00:09:44;19.20;99.90
23703;DHT22;12030;50.376;8.762;2022-08-18T00:12:34;19.10;99.90
23703;DHT22;12030;50.376;8.762;2022-08-18T00:15:00;19.00;99.90
23703;DHT22;12030;50.376;8.762;2022-08-18T00:17:29;18.90;99.90
23703;DHT22;12030;50.376;8.762;2022-08-18T00:19:56;18.80;99.90
23703;DHT22;12030;50.376;8.762;2022-08-18T00:22:21;18.70;99.90
23703;DHT22;12030;50.376;8.762;2022-08-18T00:24:50;18.60;99.90
23703;DHT22;12030;50.376;8.762;2022-08-18T00:27:23;18.50;99.90
23703;DHT22;12030;50.376;8.762;2022-08-18T00:29:50;18.50;99.90
23703;DHT22;12030;50.376;8.762;2022-08-18T00:32:19;18.70;99.90
23703;DHT22;12030;50.376;8.762;2022-08-18T00:34:45;18.80;99.90
23703;DHT22;12030;50.376;8.762;2022-08-18T00:37:11;18.90;99.90
23703;DHT22;12030;50.376;8.762;2022-08-18T00:39:37;18.90;99.90
23703;DHT22;12030;50.376;8.762;2022-08-18T00:42:22;18.80;99.90
23703;DHT22;12030;50.376;8.762;2022-08-18T00:44:48;18.80;99.90
23703;DHT22;12030;50.376;8.762;2022-08-18T00:47:13;18.70;99.90
23703;DHT22;12030;50.376;8.762;2022-08-18T00:49:41;18.60;99.90
23703;DHT22;12030;50.376;8.762;2022-08-18T00:52:08;18.60;99.90
23703;DHT22;12030;50.376;8.762;2022-08-18T00:54:37;18.60;99.90
23703;DHT22;12030;50.376;8.762;2022-08-18T00:57:07;18.50;99.90
23703;DHT22;12030;50.376;8.762;2022-08-18T00:59:40;18.50;99.90
23703;DHT22;12030;50.376;8.762;2022-08-18T01:02:13;18.40;99.90
23703;DHT22;12030;50.376;8.762;2022-08-18T01:04:48;18.30;99.90
23703;DHT22;12030;50.376;8.762;2022-08-18T01:07:20;18.40;99.90
23703;DHT22;12030;50.376;8.762;2022-08-18T01:09:48;18.60;99.90
23703;DHT22;12030;50.376;8.762;2022-08-18T01:12:14;18.50;99.90
23703;DHT22;12030;50.376;8.762;2022-08-18T01:14:40;18.50;99.90
23703;DHT22;12030;50.376;8.762;2022-08-18T01:17:05;18.50;99.90
23703;DHT22;12030;50.376;8.762;2022-08-18T01:19:50;18.60;99.90
23703;DHT22;12030;50.376;8.762;2022-08-18T01:22:59;18.90;99.90
23703;DHT22;12030;50.376;8.762;2022-08-18T01:25:22;19.00;99.90
23703;DHT22;12030;50.376;8.762;2022-08-18T01:28:06;19.00;99.90
23703;DHT22;12030;50.376;8.762;2022-08-18T01:30:45;19.10;99.90
23703;DHT22;12030;50.376;8.762;2022-08-18T01:33:10;19.20;99.90
23703;DHT22;12030;50.376;8.762;2022-08-18T01:35:37;19.10;99.90
23703;DHT22;12030;50.376;8.762;2022-08-18T01:38:03;19.20;99.90
23703;DHT22;12030;50.376;8.762;2022-08-18T01:40:29;19.20;99.90
23703;DHT22;12030;50.376;8.762;2022-08-18T01:42:56;19.20;99.90
23703;DHT22;12030;50.376;8.762;2022-08-18T01:45:22;19.30;99.90
23703;DHT22;12030;50.376;8.762;2022-08-18T01:47:48;19.40;99.90
23703;DHT22;12030;50.376;8.762;2022-08-18T01:50:15;19.40;99.90
23703;DHT22;12030;50.376;8.762;2022-08-18T01:52:41;19.50;99.90
23703;DHT22;12030;50.376;8.762;2022-08-18T01:55:07;19.50;99.90
23703;DHT22;12030;50.376;8.762;2022-08-18T01:57:36;19.50;99.90
23703;DHT22;12030;50.376;8.762;2022-08-18T02:00:10;19.60;99.90
23703;DHT22;12030;50.376;8.762;2022-08-18T02:02:36;19.60;99.90
23703;DHT22;12030;50.376;8.762;2022-08-18T02:05:08;19.60;99.90
23703;DHT22;12030;50.376;8.762;2022-08-18T02:07:36;19.60;99.90
23703;DHT22;12030;50.376;8.762;2022-08-18T02:10:04;19.60;99.90
23703;DHT22;12030;50.376;8.762;2022-08-18T02:12:31;19.50;99.90
23703;DHT22;12030;50.376;8.762;2022-08-18T02:14:57;19.50;99.90
23703;DHT22;12030;50.376;8.762;2022-08-18T02:17:22;19.60;99.90
23703;DHT22;12030;50.376;8.762;2022-08-18T02:19:48;19.50;99.90
23703;DHT22;12030;50.376;8.762;2022-08-18T02:22:16;19.50;99.90
23703;DHT22;12030;50.376;8.762;2022-08-18T02:24:42;19.40;99.90
23703;DHT22;12030;50.376;8.762;2022-08-18T02:27:10;19.40;99.90
23703;DHT22;12030;50.376;8.762;2022-08-18T02:29:36;19.30;99.90
23703;DHT22;12030;50.376;8.762;2022-08-18T02:32:02;19.10;99.90
23703;DHT22;12030;50.376;8.762;2022-08-18T02:34:28;19.10;99.90
23703;DHT22;12030;50.376;8.762;2022-08-18T02:36:53;19.00;99.90
23703;DHT22;12030;50.376;8.762;2022-08-18T02:39:19;19.00;99.90
23703;DHT22;12030;50.376;8.762;2022-08-18T02:41:44;19.00;99.90
23703;DHT22;12030;50.376;8.762;2022-08-18T02:44:10;19.00;99.90
23703;DHT22;12030;50.376;8.762;2022-08-18T02:46:36;19.00;99.90
23703;DHT22;12030;50.376;8.762;2022-08-18T02:49:03;19.00;99.90
23703;DHT22;12030;50.376;8.762;2022-08-18T02:51:28;19.00;99.90
23703;DHT22;12030;50.376;8.762;2022-08-18T02:53:54;18.90;99.90
23703;DHT22;12030;50.376;8.762;2022-08-18T02:56:25;18.90;99.90
23703;DHT22;12030;50.376;8.762;2022-08-18T02:58:57;18.80;99.90
23703;DHT22;12030;50.376;8.762;2022-08-18T03:01:26;18.80;99.90
23703;DHT22;12030;50.376;8.762;2022-08-18T03:03:53;18.70;99.90
23703;DHT22;12030;50.376;8.762;2022-08-18T03:06:20;18.70;99.90
23703;DHT22;12030;50.376;8.762;2022-08-18T03:08:46;18.60;99.90
23703;DHT22;12030;50.376;8.762;2022-08-18T03:11:15;18.50;99.90
23703;DHT22;12030;50.376;8.762;2022-08-18T03:13:41;18.50;99.90
23703;DHT22;12030;50.376;8.762;2022-08-18T03:16:07;18.50;99.90
23703;DHT22;12030;50.376;8.762;2022-08-18T03:18:33;18.40;99.90
23703;DHT22;12030;50.376;8.762;2022-08-18T03:21:11;18.40;99.90
23703;DHT22;12030;50.376;8.762;2022-08-18T03:23:37;18.30;99.90
23703;DHT22;12030;50.376;8.762;2022-08-18T03:26:10;18.40;99.90
23703;DHT22;12030;50.376;8.762;2022-08-18T03:28:44;18.30;99.90
23703;DHT22;12030;50.376;8.762;2022-08-18T03:31:12;18.30;99.90
23703;DHT22;12030;50.376;8.762;2022-08-18T03:33:42;18.20;99.90
23703;DHT22;12030;50.376;8.762;2022-08-18T03:36:13;18.20;99.90
23703;DHT22;12030;50.376;8.762;2022-08-18T03:38:40;18.20;99.90
23703;DHT22;12030;50.376;8.762;2022-08-18T03:41:08;18.20;99.90
23703;DHT22;12030;50.376;8.762;2022-08-18T03:43:34;18.30;99.90
23703;DHT22;12030;50.376;8.762;2022-08-18T03:46:04;18.30;99.90
23703;DHT22;12030;50.376;8.762;2022-08-18T03:48:31;18.30;99.90
23703;DHT22;12030;50.376;8.762;2022-08-18T03:51:10;18.30;99.90
23703;DHT22;12030;50.376;8.762;2022-08-18T03:53:38;18.20;99.90
23703;DHT22;12030;50.376;8.762;2022-08-18T03:56:15;18.20;99.90
23703;DHT22;12030;50.376;8.762;2022-08-18T03:59:06;18.10;99.90
23703;DHT22;12030;50.376;8.762;2022-08-18T04:01:36;18.10;99.90
23703;DHT22;12030;50.376;8.762;2022-08-18T04:04:06;18.10;99.90
23703;DHT22;12030;50.376;8.762;2022-08-18T04:06:35;18.00;99.90
23703;DHT22;12030;50.376;8.762;2022-08-18T04:09:04;18.00;99.90
23703;DHT22;12030;50.376;8.762;2022-08-18T04:11:32;18.00;99.90
23703;DHT22;12030;50.376;8.762;2022-08-18T04:13:58;18.00;99.90
23703;DHT22;12030;50.376;8.762;2022-08-18T04:16:25;17.90;99.90
23703;DHT22;12030;50.376;8.762;2022-08-18T04:18:51;17.90;99.90
23703;DHT22;12030;50.376;8.762;2022-08-18T04:21:17;17.90;99.90
23703;DHT22;12030;50.376;8.762;2022-08-18T04:23:43;17.90;99.90
23703;DHT22;12030;50.376;8.762;2022-08-18T04:26:10;17.90;99.90
23703;DHT22;12030;50.376;8.762;2022-08-18T04:28:38;17.90;99.90
23703;DHT22;12030;50.376;8.762;2022-08-18T04:31:12;17.90;99.90
23703;DHT22;12030;50.376;8.762;2022-08-18T04:33:40;17.90;99.90
23703;DHT22;12030;50.376;8.762;2022-08-18T04:36:11;17.90;99.90
23703;DHT22;12030;50.376;8.762;2022-08-18T04:38:38;17.90;99.90
23703;DHT22;12030;50.376;8.762;2022-08-18T04:41:06;17.90;99.90
23703;DHT22;12030;50.376;8.762;2022-08-18T04:43:32;18.00;99.90
23703;DHT22;12030;50.376;8.762;2022-08-18T04:45:58;17.90;99.90
23703;DHT22;12030;50.376;8.762;2022-08-18T04:48:30;17.90;99.90
23703;DHT22;12030;50.376;8.762;2022-08-18T04:51:07;17.90;99.90
23703;DHT22;12030;50.376;8.762;2022-08-18T04:53:35;18.00;99.90
23703;DHT22;12030;50.376;8.762;2022-08-18T04:56:21;18.10;99.90
23703;DHT22;12030;50.376;8.762;2022-08-18T04:59:11;18.10;99.90
23703;DHT22;12030;50.376;8.762;2022-08-18T05:01:43;18.20;99.90
23703;DHT22;12030;50.376;8.762;2022-08-18T05:04:14;18.20;99.90
23703;DHT22;12030;50.376;8.762;2022-08-18T05:06:40;18.20;99.90
23703;DHT22;12030;50.376;8.762;2022-08-18T05:09:08;18.30;99.90
23703;DHT22;12030;50.376;8.762;2022-08-18T05:11:36;18.30;99.90
23703;DHT22;12030;50.376;8.762;2022-08-18T05:14:05;18.40;99.90
23703;DHT22;12030;50.376;8.762;2022-08-18T05:16:31;18.40;99.90
23703;DHT22;12030;50.376;8.762;2022-08-18T05:19:00;18.50;99.90
23703;DHT22;12030;50.376;8.762;2022-08-18T05:21:28;18.60;99.90
23703;DHT22;12030;50.376;8.762;2022-08-18T05:23:54;18.70;99.90
23703;DHT22;12030;50.376;8.762;2022-08-18T05:26:19;18.70;99.90
23703;DHT22;12030;50.376;8.762;2022-08-18T05:28:45;18.80;99.90
23703;DHT22;12030;50.376;8.762;2022-08-18T05:31:22;18.80;99.90
23703;DHT22;12030;50.376;8.762;2022-08-18T05:33:49;18.80;99.90
23703;DHT22;12030;50.376;8.762;2022-08-18T05:39:34;18.80;99.90
23703;DHT22;12030;50.376;8.762;2022-08-18T05:42:03;18.90;99.90
23703;DHT22;12030;50.376;8.762;2022-08-18T05:44:34;18.90;99.90
23703;DHT22;12030;50.376;8.762;2022-08-18T05:47:04;18.90;99.90
23703;DHT22;12030;50.376;8.762;2022-08-18T05:49:31;19.00;99.90
23703;DHT22;12030;50.376;8.762;2022-08-18T05:52:00;19.00;99.90
23703;DHT22;12030;50.376;8.762;2022-08-18T05:54:40;19.10;99.90
23703;DHT22;12030;50.376;8.762;2022-08-18T05:57:30;19.20;99.90
23703;DHT22;12030;50.376;8.762;2022-08-18T05:59:58;19.20;99.90
23703;DHT22;12030;50.376;8.762;2022-08-18T06:02:34;19.30;99.90
23703;DHT22;12030;50.376;8.762;2022-08-18T06:05:12;19.40;99.90
23703;DHT22;12030;50.376;8.762;2022-08-18T06:07:49;19.50;99.90
23703;DHT22;12030;50.376;8.762;2022-08-18T06:10:16;19.50;99.90
23703;DHT22;12030;50.376;8.762;2022-08-18T06:12:47;19.60;99.90
23703;DHT22;12030;50.376;8.762;2022-08-18T06:15:41;19.70;99.90
23703;DHT22;12030;50.376;8.762;2022-08-18T06:18:19;19.70;99.90
23703;DHT22;12030;50.376;8.762;2022-08-18T06:21:11;19.70;99.90
23703;DHT22;12030;50.376;8.762;2022-08-18T06:23:45;19.70;99.90
23703;DHT22;12030;50.376;8.762;2022-08-18T06:26:24;19.80;99.90
23703;DHT22;12030;50.376;8.762;2022-08-18T06:32:12;20.00;99.90
23703;DHT22;12030;50.376;8.762;2022-08-18T06:35:01;20.00;99.90
23703;DHT22;12030;50.376;8.762;2022-08-18T06:39:55;20.10;99.90
23703;DHT22;12030;50.376;8.762;2022-08-18T06:42:26;20.20;99.90
23703;DHT22;12030;50.376;8.762;2022-08-18T06:45:00;20.30;99.90
23703;DHT22;12030;50.376;8.762;2022-08-18T06:47:48;20.40;99.90
23703;DHT22;12030;50.376;8.762;2022-08-18T06:50:26;20.40;99.90
23703;DHT22;12030;50.376;8.762;2022-08-18T06:53:02;20.40;99.90
23703;DHT22;12030;50.376;8.762;2022-08-18T06:55:39;20.40;99.90
23703;DHT22;12030;50.376;8.762;2022-08-18T07:08:38;20.50;99.90
23703;DHT22;12030;50.376;8.762;2022-08-18T07:11:30;20.50;99.90
23703;DHT22;12030;50.376;8.762;2022-08-18T07:14:12;20.40;99.90
23703;DHT22;12030;50.376;8.762;2022-08-18T07:16:38;20.50;99.90
23703;DHT22;12030;50.376;8.762;2022-08-18T07:19:12;20.60;99.90
23703;DHT22;12030;50.376;8.762;2022-08-18T07:21:40;20.60;99.90
23703;DHT22;12030;50.376;8.762;2022-08-18T07:24:24;20.60;99.90
23703;DHT22;12030;50.376;8.762;2022-08-18T07:30:25;20.70;99.90
23703;DHT22;12030;50.376;8.762;2022-08-18T07:32:29;20.80;99.90
23703;DHT22;12030;50.376;8.762;2022-08-18T07:34:59;20.90;99.90
23703;DHT22;12030;50.376;8.762;2022-08-18T07:37:37;20.90;99.90
23703;DHT22;12030;50.376;8.762;2022-08-18T07:40:17;20.90;99.90
23703;DHT22;12030;50.376;8.762;2022-08-18T07:42:58;20.90;99.90
23703;DHT22;12030;50.376;8.762;2022-08-18T07:45:40;20.90;99.90
23703;DHT22;12030;50.376;8.762;2022-08-18T07:55:47;21.10;99.90
23703;DHT22;12030;50.376;8.762;2022-08-18T07:58:25;21.10;99.90
23703;DHT22;12030;50.376;8.762;2022-08-18T08:06:18;21.40;99.90
23703;DHT22;12030;50.376;8.762;2022-08-18T08:09:11;21.30;99.90
23703;DHT22;12030;50.376;8.762;2022-08-18T08:11:55;21.40;99.90
23703;DHT22;12030;50.376;8.762;2022-08-18T08:14:44;21.30;99.90
23703;DHT22;12030;50.376;8.762;2022-08-18T08:17:23;21.30;99.90
23703;DHT22;12030;50.376;8.762;2022-08-18T08:20:10;21.30;99.90
23703;DHT22;12030;50.376;8.762;2022-08-18T08:25:35;21.30;99.90
23703;DHT22;12030;50.376;8.762;2022-08-18T08:28:17;21.30;99.90
23703;DHT22;12030;50.376;8.762;2022-08-18T08:33:40;21.30;99.90
23703;DHT22;12030;50.376;8.762;2022-08-18T08:36:23;21.30;99.90
23703;DHT22;12030;50.376;8.762;2022-08-18T08:39:10;21.40;99.90
23703;DHT22;12030;50.376;8.762;2022-08-18T08:41:45;21.50;99.90
23703;DHT22;12030;50.376;8.762;2022-08-18T08:44:18;21.50;99.90
23703;DHT22;12030;50.376;8.762;2022-08-18T08:46:52;21.50;99.90
23703;DHT22;12030;50.376;8.762;2022-08-18T08:52:26;21.70;99.90
23703;DHT22;12030;50.376;8.762;2022-08-18T08:55:17;21.70;99.90
23703;DHT22;12030;50.376;8.762;2022-08-18T08:57:52;21.80;99.90
23703;DHT22;12030;50.376;8.762;2022-08-18T09:00:20;21.80;99.90
23703;DHT22;12030;50.376;8.762;2022-08-18T09:03:05;21.90;99.90
23703;DHT22;12030;50.376;8.762;2022-08-18T09:08:49;22.00;99.90
23703;DHT22;12030;50.376;8.762;2022-08-18T09:11:38;22.00;99.90
23703;DHT22;12030;50.376;8.762;2022-08-18T09:17:31;22.20;99.90
23703;DHT22;12030;50.376;8.762;2022-08-18T09:22:53;22.50;99.90
23703;DHT22;12030;50.376;8.762;2022-08-18T09:25:46;22.70;99.90
23703;DHT22;12030;50.376;8.762;2022-08-18T09:28:16;22.90;99.90
23703;DHT22;12030;50.376;8.762;2022-08-18T09:30:43;23.00;99.90
23703;DHT22;12030;50.376;8.762;2022-08-18T09:38:18;23.30;99.90
23703;DHT22;12030;50.376;8.762;2022-08-18T09:41:15;23.40;99.90
23703;DHT22;12030;50.376;8.762;2022-08-18T09:44:01;23.60;99.90
23703;DHT22;12030;50.376;8.762;2022-08-18T09:52:51;23.70;99.90
23703;DHT22;12030;50.376;8.762;2022-08-18T09:55:06;23.80;99.90
23703;DHT22;12030;50.376;8.762;2022-08-18T10:01:26;23.80;99.90
23703;DHT22;12030;50.376;8.762;2022-08-18T10:06:44;24.10;99.90
23703;DHT22;12030;50.376;8.762;2022-08-18T10:09:35;24.20;99.90
23703;DHT22;12030;50.376;8.762;2022-08-18T10:12:31;24.20;99.90
23703;DHT22;12030;50.376;8.762;2022-08-18T10:31:22;24.90;99.90
23703;DHT22;12030;50.376;8.762;2022-08-18T10:36:34;25.10;99.90
23703;DHT22;12030;50.376;8.762;2022-08-18T10:39:05;25.10;99.90
23703;DHT22;12030;50.376;8.762;2022-08-18T10:41:32;25.10;99.90
23703;DHT22;12030;50.376;8.762;2022-08-18T10:44:01;25.20;99.90
23703;DHT22;12030;50.376;8.762;2022-08-18T10:46:32;25.20;99.90
23703;DHT22;12030;50.376;8.762;2022-08-18T10:56:49;25.00;99.90
23703;DHT22;12030;50.376;8.762;2022-08-18T10:59:27;24.90;99.90
23703;DHT22;12030;50.376;8.762;2022-08-18T11:02:35;25.00;99.90
23703;DHT22;12030;50.376;8.762;2022-08-18T11:05:09;25.00;99.90
23703;DHT22;12030;50.376;8.762;2022-08-18T11:07:36;24.90;99.90
23703;DHT22;12030;50.376;8.762;2022-08-18T11:10:22;24.90;99.90
23703;DHT22;12030;50.376;8.762;2022-08-18T11:16:02;24.70;99.90
23703;DHT22;12030;50.376;8.762;2022-08-18T11:18:46;24.70;99.90
23703;DHT22;12030;50.376;8.762;2022-08-18T11:24:06;24.80;99.90
23703;DHT22;12030;50.376;8.762;2022-08-18T11:26:45;24.70;99.90
23703;DHT22;12030;50.376;8.762;2022-08-18T11:31:56;24.40;99.90
23703;DHT22;12030;50.376;8.762;2022-08-18T11:34:35;24.40;99.90
23703;DHT22;12030;50.376;8.762;2022-08-18T11:37:06;24.40;99.90
23703;DHT22;12030;50.376;8.762;2022-08-18T11:39:40;24.40;99.90
23703;DHT22;12030;50.376;8.762;2022-08-18T11:42:07;24.30;99.90
23703;DHT22;12030;50.376;8.762;2022-08-18T11:44:37;24.30;99.90
23703;DHT22;12030;50.376;8.762;2022-08-18T11:47:16;24.20;99.90
23703;DHT22;12030;50.376;8.762;2022-08-18T11:52:27;24.10;99.90
23703;DHT22;12030;50.376;8.762;2022-08-18T11:55:00;24.10;99.90
23703;DHT22;12030;50.376;8.762;2022-08-18T11:57:50;24.00;99.90
23703;DHT22;12030;50.376;8.762;2022-08-18T12:06:08;24.00;99.90
23703;DHT22;12030;50.376;8.762;2022-08-18T12:08:38;24.20;99.90
23703;DHT22;12030;50.376;8.762;2022-08-18T12:11:18;24.50;99.90
23703;DHT22;12030;50.376;8.762;2022-08-18T12:13:46;25.00;99.90
23703;DHT22;12030;50.376;8.762;2022-08-18T12:16:31;25.30;99.90
23703;DHT22;12030;50.376;8.762;2022-08-18T12:18:58;25.40;99.90
23703;DHT22;12030;50.376;8.762;2022-08-18T12:21:24;25.50;99.90
23703;DHT22;12030;50.376;8.762;2022-08-18T12:23:49;25.50;99.90
23703;DHT22;12030;50.376;8.762;2022-08-18T12:26:15;25.50;99.90
23703;DHT22;12030;50.376;8.762;2022-08-18T12:28:41;25.70;99.90
23703;DHT22;12030;50.376;8.762;2022-08-18T12:31:08;25.70;99.90
23703;DHT22;12030;50.376;8.762;2022-08-18T12:33:34;26.00;99.90
23703;DHT22;12030;50.376;8.762;2022-08-18T12:36:02;26.30;99.90
23703;DHT22;12030;50.376;8.762;2022-08-18T12:38:27;26.30;99.90
23703;DHT22;12030;50.376;8.762;2022-08-18T12:40:53;26.30;99.90
23703;DHT22;12030;50.376;8.762;2022-08-18T12:43:19;26.40;99.90
23703;DHT22;12030;50.376;8.762;2022-08-18T12:45:45;26.40;99.90
23703;DHT22;12030;50.376;8.762;2022-08-18T12:48:11;26.50;99.90
23703;DHT22;12030;50.376;8.762;2022-08-18T12:50:38;26.50;99.90
23703;DHT22;12030;50.376;8.762;2022-08-18T12:53:04;26.50;99.90
23703;DHT22;12030;50.376;8.762;2022-08-18T12:55:34;26.70;99.90
23703;DHT22;12030;50.376;8.762;2022-08-18T12:58:01;26.50;99.90
23703;DHT22;12030;50.376;8.762;2022-08-18T13:00:28;26.50;99.90
23703;DHT22;12030;50.376;8.762;2022-08-18T13:02:54;26.40;99.90
23703;DHT22;12030;50.376;8.762;2022-08-18T13:05:19;26.40;99.90
23703;DHT22;12030;50.376;8.762;2022-08-18T13:07:45;26.70;99.90
23703;DHT22;12030;50.376;8.762;2022-08-18T13:10:11;26.80;99.90
23703;DHT22;12030;50.376;8.762;2022-08-18T13:12:36;26.90;99.90
23703;DHT22;12030;50.376;8.762;2022-08-18T13:15:02;27.00;99.70
23703;DHT22;12030;50.376;8.762;2022-08-18T13:17:30;27.00;99.00
23703;DHT22;12030;50.376;8.762;2022-08-18T13:19:56;27.10;99.20
23703;DHT22;12030;50.376;8.762;2022-08-18T13:22:22;26.70;99.10
23703;DHT22;12030;50.376;8.762;2022-08-18T13:24:48;26.70;99.90
23703;DHT22;12030;50.376;8.762;2022-08-18T13:27:14;26.70;99.90
23703;DHT22;12030;50.376;8.762;2022-08-18T13:29:40;26.70;99.90
23703;DHT22;12030;50.376;8.762;2022-08-18T13:32:06;26.90;99.90
23703;DHT22;12030;50.376;8.762;2022-08-18T13:34:33;27.10;99.90
23703;DHT22;12030;50.376;8.762;2022-08-18T13:36:59;27.10;99.90
23703;DHT22;12030;50.376;8.762;2022-08-18T13:39:25;27.10;99.70
23703;DHT22;12030;50.376;8.762;2022-08-18T13:41:53;27.20;99.90
23703;DHT22;12030;50.376;8.762;2022-08-18T13:44:20;27.20;99.30
23703;DHT22;12030;50.376;8.762;2022-08-18T13:46:47;27.10;99.10
23703;DHT22;12030;50.376;8.762;2022-08-18T13:49:14;27.20;99.90
23703;DHT22;12030;50.376;8.762;2022-08-18T13:51:41;27.20;98.60
23703;DHT22;12030;50.376;8.762;2022-08-18T13:54:08;27.00;99.20
23703;DHT22;12030;50.376;8.762;2022-08-18T13:56:35;27.10;99.70
23703;DHT22;12030;50.376;8.762;2022-08-18T13:59:02;27.10;99.50
23703;DHT22;12030;50.376;8.762;2022-08-18T14:01:29;27.20;99.80
23703;DHT22;12030;50.376;8.762;2022-08-18T14:03:56;27.30;98.80
23703;DHT22;12030;50.376;8.762;2022-08-18T14:06:22;27.30;99.90
23703;DHT22;12030;50.376;8.762;2022-08-18T14:08:48;27.30;99.70
23703;DHT22;12030;50.376;8.762;2022-08-18T14:11:14;27.10;98.60
23703;DHT22;12030;50.376;8.762;2022-08-18T14:13:40;27.10;99.80
23703;DHT22;12030;50.376;8.762;2022-08-18T14:16:05;27.00;98.80
23703;DHT22;12030;50.376;8.762;2022-08-18T14:18:32;26.90;98.10
23703;DHT22;12030;50.376;8.762;2022-08-18T14:20:58;26.70;96.90
23703;DHT22;12030;50.376;8.762;2022-08-18T14:23:42;26.70;97.20
23703;DHT22;12030;50.376;8.762;2022-08-18T14:26:26;26.60;97.00
23703;DHT22;12030;50.376;8.762;2022-08-18T14:29:10;26.50;96.50
23703;DHT22;12030;50.376;8.762;2022-08-18T14:31:36;26.70;97.50
23703;DHT22;12030;50.376;8.762;2022-08-18T14:34:01;26.70;98.50
23703;DHT22;12030;50.376;8.762;2022-08-18T14:36:27;26.70;98.50
23703;DHT22;12030;50.376;8.762;2022-08-18T14:38:52;26.80;97.80
23703;DHT22;12030;50.376;8.762;2022-08-18T14:41:19;26.80;97.70
23703;DHT22;12030;50.376;8.762;2022-08-18T14:43:45;26.80;97.90
23703;DHT22;12030;50.376;8.762;2022-08-18T14:46:11;26.80;97.60
23703;DHT22;12030;50.376;8.762;2022-08-18T14:48:38;26.90;96.70
23703;DHT22;12030;50.376;8.762;2022-08-18T14:51:04;26.90;95.70
23703;DHT22;12030;50.376;8.762;2022-08-18T14:53:32;27.00;94.30
23703;DHT22;12030;50.376;8.762;2022-08-18T14:55:58;26.90;93.70
23703;DHT22;12030;50.376;8.762;2022-08-18T14:58:26;26.90;93.40
23703;DHT22;12030;50.376;8.762;2022-08-18T15:00:54;27.00;93.30
23703;DHT22;12030;50.376;8.762;2022-08-18T15:03:25;27.30;92.30
23703;DHT22;12030;50.376;8.762;2022-08-18T15:05:51;27.30;92.60
23703;DHT22;12030;50.376;8.762;2022-08-18T15:08:17;27.50;92.50
23703;DHT22;12030;50.376;8.762;2022-08-18T15:10:44;27.60;92.10
23703;DHT22;12030;50.376;8.762;2022-08-18T15:13:09;27.70;92.00
23703;DHT22;12030;50.376;8.762;2022-08-18T15:15:35;27.80;92.60
23703;DHT22;12030;50.376;8.762;2022-08-18T15:18:01;27.80;92.30
23703;DHT22;12030;50.376;8.762;2022-08-18T15:20:27;27.50;91.90
23703;DHT22;12030;50.376;8.762;2022-08-18T15:22:53;27.40;92.30
23703;DHT22;12030;50.376;8.762;2022-08-18T15:25:37;27.30;92.60
23703;DHT22;12030;50.376;8.762;2022-08-18T15:28:17;27.20;92.30
23703;DHT22;12030;50.376;8.762;2022-08-18T15:30:44;27.20;92.90
23703;DHT22;12030;50.376;8.762;2022-08-18T15:33:11;27.00;93.10
23703;DHT22;12030;50.376;8.762;2022-08-18T15:35:38;26.90;92.30
23703;DHT22;12030;50.376;8.762;2022-08-18T15:38:04;26.90;92.20
23703;DHT22;12030;50.376;8.762;2022-08-18T15:40:31;26.90;92.10
23703;DHT22;12030;50.376;8.762;2022-08-18T15:42:59;26.90;92.60
23703;DHT22;12030;50.376;8.762;2022-08-18T15:45:30;26.90;92.80
23703;DHT22;12030;50.376;8.762;2022-08-18T15:47:59;26.80;92.90
23703;DHT22;12030;50.376;8.762;2022-08-18T15:50:26;26.80;93.10
23703;DHT22;12030;50.376;8.762;2022-08-18T15:52:57;26.70;93.00
23703;DHT22;12030;50.376;8.762;2022-08-18T15:55:27;26.70;94.10
23703;DHT22;12030;50.376;8.762;2022-08-18T15:57:54;26.70;93.80
23703;DHT22;12030;50.376;8.762;2022-08-18T16:00:22;26.70;94.00
23703;DHT22;12030;50.376;8.762;2022-08-18T16:02:51;26.60;94.40
23703;DHT22;12030;50.376;8.762;2022-08-18T16:05:19;26.40;94.30
23703;DHT22;12030;50.376;8.762;2022-08-18T16:07:48;26.30;94.60
23703;DHT22;12030;50.376;8.762;2022-08-18T16:10:16;26.20;94.80
23703;DHT22;12030;50.376;8.762;2022-08-18T16:12:42;26.20;94.90
23703;DHT22;12030;50.376;8.762;2022-08-18T16:15:09;26.10;95.00
23703;DHT22;12030;50.376;8.762;2022-08-18T16:17:35;26.10;95.00
23703;DHT22;12030;50.376;8.762;2022-08-18T16:20:00;26.10;95.10
23703;DHT22;12030;50.376;8.762;2022-08-18T16:22:29;26.00;95.00
23703;DHT22;12030;50.376;8.762;2022-08-18T16:24:57;26.00;95.10
23703;DHT22;12030;50.376;8.762;2022-08-18T16:27:23;25.80;95.20
23703;DHT22;12030;50.376;8.762;2022-08-18T16:29:52;25.80;95.60
23703;DHT22;12030;50.376;8.762;2022-08-18T16:32:18;25.70;96.10
23703;DHT22;12030;50.376;8.762;2022-08-18T16:34:44;25.80;96.30
23703;DHT22;12030;50.376;8.762;2022-08-18T16:37:09;25.70;96.40
23703;DHT22;12030;50.376;8.762;2022-08-18T16:39:35;25.80;96.70
23703;DHT22;12030;50.376;8.762;2022-08-18T16:42:00;25.80;96.70
23703;DHT22;12030;50.376;8.762;2022-08-18T16:44:27;25.80;96.80
23703;DHT22;12030;50.376;8.762;2022-08-18T16:46:53;25.70;96.90
23703;DHT22;12030;50.376;8.762;2022-08-18T16:49:19;25.80;96.90
23703;DHT22;12030;50.376;8.762;2022-08-18T16:51:45;25.80;97.00
23703;DHT22;12030;50.376;8.762;2022-08-18T16:54:10;25.80;97.20
23703;DHT22;12030;50.376;8.762;2022-08-18T16:56:37;25.80;97.20
23703;DHT22;12030;50.376;8.762;2022-08-18T16:59:02;25.70;97.20
23703;DHT22;12030;50.376;8.762;2022-08-18T17:01:46;25.80;97.60
23703;DHT22;12030;50.376;8.762;2022-08-18T17:04:31;25.70;97.80
23703;DHT22;12030;50.376;8.762;2022-08-18T17:07:01;25.70;97.70
23703;DHT22;12030;50.376;8.762;2022-08-18T17:09:29;25.60;98.10
23703;DHT22;12030;50.376;8.762;2022-08-18T17:11:55;25.60;98.20
23703;DHT22;12030;50.376;8.762;2022-08-18T17:14:25;25.50;98.40
23703;DHT22;12030;50.376;8.762;2022-08-18T17:16:53;25.40;98.60
23703;DHT22;12030;50.376;8.762;2022-08-18T17:19:20;25.30;98.80
23703;DHT22;12030;50.376;8.762;2022-08-18T17:21:46;25.20;99.00
23703;DHT22;12030;50.376;8.762;2022-08-18T17:24:12;25.10;99.30
23703;DHT22;12030;50.376;8.762;2022-08-18T17:26:48;25.10;99.90
23703;DHT22;12030;50.376;8.762;2022-08-18T17:29:26;25.10;99.80
23703;DHT22;12030;50.376;8.762;2022-08-18T17:31:56;25.10;99.90
23703;DHT22;12030;50.376;8.762;2022-08-18T17:34:30;25.00;99.90
23703;DHT22;12030;50.376;8.762;2022-08-18T17:36:57;25.00;99.90
23703;DHT22;12030;50.376;8.762;2022-08-18T17:39:30;24.90;99.90
23703;DHT22;12030;50.376;8.762;2022-08-18T17:42:06;24.90;99.90
23703;DHT22;12030;50.376;8.762;2022-08-18T17:44:53;24.90;99.90
23703;DHT22;12030;50.376;8.762;2022-08-18T17:47:27;24.90;99.90
23703;DHT22;12030;50.376;8.762;2022-08-18T17:49:56;24.80;99.90